Fairview, Tennessee
Current Conditions -  °F | °C
As of 3:53 AM on Friday 24 Oct 2014 (Local Time) from KBNA Reporting Station
Overcast Overcast  
Wind Chill: 50°   Ceiling: 15000
Heat Index: 50°   Visibility: 10mi
Dew Point: 46°   Wind: 0mph
Humidity: 86%   Direction: NA
Pressure: 30.11"   Gusts: NA
Location:  35.98°N, 87.12°W
Report Text: KBNA 240853Z 00000KT 10SM OVC150 10/08 A3011 RMK AO2 SLP194 T01000078 51001
Loading
Personal Weather Stations






























Interactive Weather Map
Tropical Storm Tracking
New forecast layout! Learn more

10-Day Weather Forecast

Advertisements
Track Severe Weather on mobile